createdAt,value
2023-03-06T00:00:14.182Z,41.54
2023-03-06T00:10:19.347Z,41.56
2023-03-06T00:20:24.560Z,41.41
2023-03-06T00:30:29.664Z,41.40
2023-03-06T00:41:54.657Z,41.48
2023-03-06T00:51:58.791Z,41.44
2023-03-06T01:02:04.000Z,41.45
2023-03-06T01:12:09.476Z,41.48
2023-03-06T01:22:14.968Z,41.46
2023-03-06T01:32:20.533Z,41.51
2023-03-06T01:42:26.278Z,41.52
2023-03-06T01:52:31.706Z,41.57
2023-03-06T02:02:36.720Z,41.62
2023-03-06T02:12:42.015Z,41.66
2023-03-06T02:22:47.647Z,41.68
2023-03-06T02:32:53.034Z,41.72
2023-03-06T02:42:58.798Z,41.80
2023-03-06T02:53:03.637Z,41.82
2023-03-06T03:03:09.071Z,41.82
2023-03-06T03:13:14.102Z,41.81
2023-03-06T03:23:19.332Z,41.82
2023-03-06T03:33:24.416Z,41.83
2023-03-06T03:43:29.514Z,41.82
2023-03-06T03:53:34.912Z,41.84
2023-03-06T04:03:40.072Z,41.83
2023-03-06T04:13:45.117Z,41.83
2023-03-06T04:23:50.252Z,41.81
2023-03-06T04:33:56.810Z,41.85
2023-03-06T04:44:02.057Z,41.93
2023-03-06T04:54:07.376Z,41.92
2023-03-06T05:04:12.606Z,41.96
2023-03-06T05:14:17.762Z,41.96
2023-03-06T05:24:22.898Z,41.96
2023-03-06T05:34:28.255Z,41.98
2023-03-06T05:44:33.448Z,42.04
2023-03-06T05:54:38.747Z,42.05
2023-03-06T06:04:43.687Z,42.07
2023-03-06T06:14:48.671Z,42.11
2023-03-06T06:24:54.015Z,42.16
2023-03-06T06:34:59.272Z,42.13
2023-03-06T06:45:05.191Z,42.14
2023-03-06T06:55:10.177Z,42.20
2023-03-06T07:05:15.390Z,42.44
2023-03-06T07:15:20.521Z,42.81
2023-03-06T07:25:25.710Z,42.79
2023-03-06T07:35:30.835Z,42.70
2023-03-06T07:45:36.406Z,42.72
2023-03-06T07:55:41.724Z,42.77
2023-03-06T08:05:46.988Z,42.85
2023-03-06T08:15:52.087Z,42.96
2023-03-06T08:25:57.475Z,43.37
2023-03-06T08:36:02.908Z,43.31
2023-03-06T08:46:08.340Z,44.49
2023-03-06T08:56:13.817Z,45.83
2023-03-06T09:06:19.042Z,45.80
2023-03-06T09:16:24.483Z,45.71
2023-03-06T09:26:43.493Z,45.11
2023-03-06T09:36:55.650Z,45.19
2023-03-06T09:46:50.567Z,45.12
2023-03-06T09:56:56.172Z,45.07
2023-03-06T10:07:01.495Z,44.79
2023-03-06T10:17:06.675Z,45.12
2023-03-06T10:27:12.217Z,44.64
2023-03-06T10:37:17.379Z,44.60
2023-03-06T10:47:22.577Z,44.47
2023-03-06T10:57:27.924Z,44.48
2023-03-06T11:07:33.265Z,44.45
2023-03-06T11:17:38.386Z,44.32
2023-03-06T11:27:43.719Z,44.28
2023-03-06T11:37:48.909Z,44.37
2023-03-06T11:47:53.870Z,44.25
2023-03-06T11:57:59.744Z,44.16
2023-03-06T12:08:05.495Z,44.06
2023-03-06T12:18:10.566Z,44.03
2023-03-06T12:28:16.175Z,44.04
2023-03-06T12:38:21.735Z,44.03
2023-03-06T12:48:27.284Z,43.96
2023-03-06T12:58:32.406Z,43.92
2023-03-06T13:08:37.876Z,43.84
2023-03-06T13:18:43.069Z,43.78
2023-03-06T13:28:48.412Z,43.78
2023-03-06T13:38:53.692Z,43.78
2023-03-06T13:48:59.546Z,43.78
2023-03-06T13:59:04.804Z,43.71
2023-03-06T14:09:10.029Z,43.69
2023-03-06T14:19:15.460Z,43.66
2023-03-06T14:29:20.832Z,43.64
2023-03-06T14:39:26.941Z,43.59
2023-03-06T14:49:32.292Z,44.85
2023-03-06T14:59:37.769Z,43.89
2023-03-06T15:09:43.065Z,43.74
2023-03-06T15:19:48.513Z,43.56
2023-03-06T15:29:53.918Z,43.44
2023-03-06T15:39:59.219Z,43.27
2023-03-06T15:50:04.336Z,43.63
2023-03-06T16:00:21.695Z,43.41
2023-03-06T16:10:20.189Z,43.00
2023-03-06T16:20:25.703Z,43.02
2023-03-06T16:30:31.354Z,43.59
2023-03-06T16:40:36.748Z,43.47
2023-03-06T16:50:41.913Z,43.44
2023-03-06T17:02:06.826Z,43.18
2023-03-06T17:12:11.464Z,43.06
2023-03-06T17:22:17.129Z,42.86
2023-03-06T17:32:22.292Z,42.76
2023-03-06T17:42:27.404Z,42.67
2023-03-06T17:52:32.531Z,42.71
2023-03-06T18:02:37.797Z,42.73
2023-03-06T18:12:42.846Z,42.64
2023-03-06T18:22:48.500Z,42.85
2023-03-06T18:32:53.472Z,42.82
2023-03-06T18:42:58.891Z,42.77
2023-03-06T18:53:04.117Z,42.42
2023-03-06T19:03:09.382Z,42.31
2023-03-06T19:13:14.644Z,42.40
2023-03-06T19:23:20.279Z,42.05
2023-03-06T19:33:25.665Z,42.34
2023-03-06T19:43:30.956Z,43.04
2023-03-06T19:53:36.121Z,43.90
2023-03-06T20:03:41.774Z,44.90
2023-03-06T20:13:47.740Z,44.49
2023-03-06T20:23:53.480Z,44.39
2023-03-06T20:33:58.825Z,44.09
2023-03-06T20:44:04.334Z,44.44
2023-03-06T20:54:09.684Z,45.26
2023-03-06T21:04:16.196Z,44.67
2023-03-06T21:14:21.572Z,44.69
2023-03-06T21:24:26.708Z,44.46
2023-03-06T21:34:32.353Z,44.18
2023-03-06T21:44:37.638Z,43.91
2023-03-06T21:54:42.917Z,43.86
2023-03-06T22:04:48.160Z,43.69
2023-03-06T22:14:53.493Z,43.71
2023-03-06T22:24:59.077Z,43.71
2023-03-06T22:35:04.719Z,43.60
2023-03-06T22:45:14.138Z,43.51
2023-03-06T22:55:19.103Z,43.45
2023-03-06T23:05:24.472Z,43.49
2023-03-06T23:15:29.504Z,43.52
2023-03-06T23:25:36.951Z,43.52
2023-03-06T23:35:42.317Z,43.49
2023-03-06T23:45:47.542Z,43.40
2023-03-06T23:55:52.882Z,43.40
